createdAt,value
2023-04-18T00:00:10.568Z,19.95
2023-04-18T00:02:44.026Z,19.88
2023-04-18T00:05:18.032Z,18.85
2023-04-18T00:07:45.191Z,19.25
2023-04-18T00:10:12.508Z,20.48
2023-04-18T00:12:39.628Z,17.67
2023-04-18T00:15:09.448Z,14.20
2023-04-18T00:17:39.808Z,17.20
2023-04-18T00:20:11.215Z,14.73
2023-04-18T00:22:42.902Z,13.45
2023-04-18T00:25:11.073Z,15.23
2023-04-18T00:27:41.797Z,19.08
2023-04-18T00:30:09.725Z,17.60
2023-04-18T00:32:38.277Z,14.90
2023-04-18T00:35:05.949Z,17.45
2023-04-18T00:37:32.935Z,16.48
2023-04-18T00:39:59.700Z,16.45
2023-04-18T00:42:28.882Z,15.93
2023-04-18T00:44:55.728Z,17.27
2023-04-18T00:47:22.552Z,16.85
2023-04-18T00:49:49.804Z,20.88
2023-04-18T00:52:18.806Z,18.35
2023-04-18T00:54:47.377Z,22.27
2023-04-18T00:57:14.987Z,15.10
2023-04-18T00:59:42.687Z,19.45
2023-04-18T01:02:09.539Z,19.10
2023-04-18T01:04:37.357Z,18.80
2023-04-18T01:07:05.382Z,16.15
2023-04-18T01:09:32.297Z,20.23
2023-04-18T01:11:59.214Z,18.52
2023-04-18T01:14:26.011Z,21.35
2023-04-18T01:16:53.276Z,17.10
2023-04-18T01:19:20.093Z,21.40
2023-04-18T01:21:47.268Z,18.83
2023-04-18T01:24:16.308Z,18.27
2023-04-18T01:26:49.275Z,20.58
2023-04-18T01:29:16.282Z,17.00
2023-04-18T01:31:43.266Z,18.40
2023-04-18T01:34:10.633Z,18.42
2023-04-18T01:36:39.125Z,19.20
2023-04-18T01:39:07.163Z,18.30
2023-04-18T01:41:34.047Z,19.40
2023-04-18T01:44:01.683Z,19.58
2023-04-18T01:46:29.239Z,17.92
2023-04-18T01:48:57.665Z,22.65
2023-04-18T01:51:24.476Z,20.42
2023-04-18T01:53:53.674Z,20.30
2023-04-18T01:56:20.960Z,18.13
2023-04-18T01:58:47.889Z,18.77
2023-04-18T02:01:14.819Z,19.15
2023-04-18T02:03:41.948Z,24.70
2023-04-18T02:06:10.134Z,23.27
2023-04-18T02:08:37.162Z,19.88
2023-04-18T02:11:06.758Z,20.42
2023-04-18T02:13:33.600Z,19.45
2023-04-18T02:16:00.568Z,18.48
2023-04-18T02:18:27.518Z,19.08
2023-04-18T02:20:54.507Z,17.38
2023-04-18T02:23:22.295Z,19.60
2023-04-18T02:25:49.437Z,17.70
2023-04-18T02:28:17.936Z,21.30
2023-04-18T02:30:44.904Z,19.05
2023-04-18T02:33:11.988Z,16.27
2023-04-18T02:35:40.762Z,19.77
2023-04-18T02:38:09.003Z,18.10
2023-04-18T02:40:35.813Z,17.10
2023-04-18T02:43:02.708Z,16.75
2023-04-18T02:45:29.549Z,16.70
2023-04-18T02:47:59.371Z,19.98
2023-04-18T02:50:27.074Z,23.75
2023-04-18T02:52:55.979Z,16.33
2023-04-18T02:55:26.961Z,15.85
2023-04-18T02:57:57.866Z,19.95
2023-04-18T03:00:44.921Z,18.17
2023-04-18T03:03:32.074Z,16.35
2023-04-18T03:08:43.726Z,18.05
2023-04-18T03:11:10.764Z,17.13
2023-04-18T03:13:37.745Z,18.75
2023-04-18T03:16:05.891Z,17.52
2023-04-18T03:18:33.657Z,17.45
2023-04-18T03:21:01.084Z,19.20
2023-04-18T03:23:30.075Z,16.95
2023-04-18T03:25:58.608Z,14.70
2023-04-18T03:28:27.942Z,17.10
2023-04-18T03:30:54.814Z,18.40
2023-04-18T03:33:22.723Z,18.40
2023-04-18T03:35:54.013Z,17.23
2023-04-18T03:38:21.307Z,17.42
2023-04-18T03:40:49.198Z,17.02
2023-04-18T03:43:23.842Z,14.38
2023-04-18T03:45:52.310Z,17.08
2023-04-18T03:48:19.606Z,18.23
2023-04-18T03:50:47.419Z,15.80
2023-04-18T03:53:15.576Z,18.50
2023-04-18T03:55:43.533Z,19.45
2023-04-18T03:58:13.373Z,14.55
2023-04-18T04:00:40.864Z,17.05
2023-04-18T04:03:11.248Z,20.45
2023-04-18T04:05:39.904Z,17.55
2023-04-18T04:08:06.774Z,16.55
2023-04-18T04:10:34.668Z,16.48
2023-04-18T04:13:01.610Z,15.40
2023-04-18T04:15:30.021Z,18.13
2023-04-18T04:18:02.998Z,18.45
2023-04-18T04:20:31.146Z,15.57
2023-04-18T04:23:07.043Z,18.52
2023-04-18T04:25:35.839Z,18.60
2023-04-18T04:28:08.553Z,17.95
2023-04-18T04:30:46.360Z,16.70
2023-04-18T04:33:13.279Z,17.00
2023-04-18T04:35:40.427Z,20.50
2023-04-18T04:38:08.458Z,17.90
2023-04-18T04:40:43.837Z,17.00
2023-04-18T04:43:15.407Z,18.98
2023-04-18T04:45:44.681Z,19.13
2023-04-18T04:48:12.265Z,22.42
2023-04-18T04:50:41.778Z,16.02
2023-04-18T04:55:39.136Z,17.05
2023-04-18T04:58:05.995Z,20.52
2023-04-18T05:00:53.714Z,17.83
2023-04-18T05:03:21.144Z,18.27
2023-04-18T05:05:48.579Z,16.23
2023-04-18T05:08:15.853Z,20.20
2023-04-18T05:10:43.325Z,17.80
2023-04-18T05:13:10.230Z,16.92
2023-04-18T05:15:37.383Z,20.55
2023-04-18T05:18:04.464Z,17.23
2023-04-18T05:20:31.510Z,16.08
2023-04-18T05:22:58.394Z,14.27
2023-04-18T05:25:25.813Z,16.17
2023-04-18T05:27:52.886Z,19.15
2023-04-18T05:30:19.832Z,16.23
2023-04-18T05:32:46.837Z,19.25
2023-04-18T05:35:14.535Z,14.98
2023-04-18T05:37:41.466Z,18.02
2023-04-18T05:40:09.428Z,22.02
2023-04-18T05:42:36.327Z,16.20
2023-04-18T05:45:03.335Z,16.25
2023-04-18T05:47:30.425Z,15.18
2023-04-18T05:49:57.321Z,19.52
2023-04-18T05:52:26.061Z,18.15
2023-04-18T05:54:53.312Z,21.13
2023-04-18T05:57:20.177Z,18.30
2023-04-18T05:59:47.022Z,17.98
2023-04-18T06:02:14.009Z,17.38
2023-04-18T06:04:43.022Z,17.60
2023-04-18T06:07:10.276Z,13.50
2023-04-18T06:09:37.214Z,18.48
2023-04-18T06:12:04.355Z,17.60
2023-04-18T06:14:31.329Z,14.07
2023-04-18T06:16:58.301Z,16.90
2023-04-18T06:19:25.299Z,17.80
2023-04-18T06:21:53.399Z,18.48
2023-04-18T06:24:20.629Z,15.88
2023-04-18T06:26:47.801Z,17.60
2023-04-18T06:29:14.916Z,14.30
2023-04-18T06:31:42.186Z,12.80
2023-04-18T06:34:09.454Z,17.20
2023-04-18T06:36:36.364Z,12.75
2023-04-18T06:39:03.881Z,14.90
2023-04-18T06:41:31.457Z,16.50
2023-04-18T06:46:28.264Z,15.52
2023-04-18T06:48:55.100Z,14.32
2023-04-18T06:51:21.956Z,16.20
2023-04-18T06:53:52.495Z,15.48
2023-04-18T06:56:22.556Z,14.90
2023-04-18T06:58:50.187Z,16.45
2023-04-18T07:01:17.177Z,17.08
2023-04-18T07:03:44.165Z,14.55
2023-04-18T07:06:11.122Z,18.05
2023-04-18T07:08:38.385Z,12.02
2023-04-18T07:11:06.769Z,16.27
2023-04-18T07:13:33.686Z,13.85
2023-04-18T07:16:01.576Z,15.68
2023-04-18T07:18:37.231Z,11.32
2023-04-18T07:21:08.721Z,21.52
2023-04-18T07:23:36.132Z,14.50
2023-04-18T07:26:05.699Z,12.32
2023-04-18T07:28:33.299Z,13.13
2023-04-18T07:31:01.320Z,10.70
2023-04-18T07:33:31.648Z,15.38
2023-04-18T07:35:58.769Z,15.57
2023-04-18T07:38:25.714Z,14.13
2023-04-18T07:41:00.830Z,17.63
2023-04-18T07:43:27.726Z,12.55
2023-04-18T07:45:54.793Z,13.02
2023-04-18T07:48:22.506Z,15.15
2023-04-18T07:50:49.591Z,13.65
2023-04-18T07:53:17.115Z,18.60
2023-04-18T07:55:44.446Z,12.70
2023-04-18T07:58:11.557Z,12.43
2023-04-18T08:00:39.353Z,11.68
2023-04-18T08:03:12.438Z,11.98
2023-04-18T08:05:41.830Z,12.23
2023-04-18T08:08:11.496Z,12.30
2023-04-18T08:10:38.550Z,11.38
2023-04-18T08:13:07.185Z,11.98
2023-04-18T08:15:34.245Z,12.15
2023-04-18T08:18:01.915Z,14.27
2023-04-18T08:20:29.006Z,12.35
2023-04-18T08:25:31.758Z,13.65
2023-04-18T08:27:58.739Z,14.32
2023-04-18T08:30:25.801Z,11.73
2023-04-18T08:32:52.789Z,11.77
2023-04-18T08:35:19.679Z,11.20
2023-04-18T08:37:46.507Z,9.85
2023-04-18T08:40:13.612Z,9.88
2023-04-18T08:42:46.809Z,10.27
2023-04-18T08:45:14.703Z,13.40
2023-04-18T08:47:42.267Z,10.45
2023-04-18T08:50:10.724Z,12.65
2023-04-18T08:52:40.154Z,12.25
2023-04-18T08:55:09.415Z,10.68
2023-04-18T08:57:36.605Z,10.23
2023-04-18T09:00:10.226Z,11.40
2023-04-18T09:02:45.030Z,12.52
2023-04-18T09:05:20.036Z,11.02
2023-04-18T09:07:53.096Z,9.63
2023-04-18T09:10:34.188Z,11.13
2023-04-18T09:13:05.638Z,12.15
2023-04-18T09:15:32.647Z,8.75
2023-04-18T09:18:03.228Z,8.98
2023-04-18T09:20:44.557Z,9.68
2023-04-18T09:23:21.636Z,8.55
2023-04-18T09:25:51.335Z,7.53
2023-04-18T09:28:27.946Z,9.15
2023-04-18T09:31:11.718Z,10.45
2023-04-18T09:33:43.226Z,8.55
2023-04-18T09:36:29.160Z,7.40
2023-04-18T09:38:57.162Z,7.93
2023-04-18T09:41:24.599Z,8.50
2023-04-18T09:44:14.283Z,7.03
2023-04-18T09:46:45.243Z,9.77
2023-04-18T09:49:14.176Z,8.75
2023-04-18T09:51:43.171Z,12.77
2023-04-18T09:54:15.146Z,11.27
2023-04-18T09:59:21.224Z,6.53
2023-04-18T10:01:50.870Z,7.75
2023-04-18T10:04:19.184Z,8.30
2023-04-18T10:06:46.918Z,9.52
2023-04-18T10:09:16.046Z,8.02
2023-04-18T10:11:44.452Z,9.68
2023-04-18T10:14:16.215Z,8.52
2023-04-18T10:16:45.604Z,9.75
2023-04-18T10:19:27.651Z,9.25
2023-04-18T10:22:00.388Z,7.55
2023-04-18T10:24:49.516Z,7.22
2023-04-18T10:27:18.260Z,7.28
2023-04-18T10:29:53.845Z,8.13
2023-04-18T10:32:23.519Z,9.27
2023-04-18T10:34:53.458Z,10.18
2023-04-18T10:37:20.500Z,11.20
2023-04-18T10:39:58.701Z,7.47
2023-04-18T10:42:52.833Z,7.65
2023-04-18T10:45:24.973Z,7.88
2023-04-18T10:48:25.486Z,9.30
2023-04-18T10:51:18.279Z,10.30
2023-04-18T10:54:09.749Z,9.40
2023-04-18T10:56:36.996Z,12.77
2023-04-18T10:59:04.320Z,9.50
2023-04-18T11:01:33.296Z,8.90
2023-04-18T11:04:11.126Z,9.07
2023-04-18T11:07:07.421Z,9.38
2023-04-18T11:09:34.432Z,10.05
2023-04-18T11:12:11.412Z,9.20
2023-04-18T11:14:49.542Z,9.52
2023-04-18T11:17:20.617Z,10.82
2023-04-18T11:19:48.546Z,13.90
2023-04-18T11:22:17.727Z,9.70
2023-04-18T11:24:45.526Z,9.27
2023-04-18T11:27:12.993Z,9.00
2023-04-18T11:29:40.869Z,11.65
2023-04-18T11:32:09.584Z,11.00
2023-04-18T11:34:36.714Z,10.80
2023-04-18T11:37:07.904Z,9.88
2023-04-18T11:39:40.834Z,10.52
2023-04-18T11:42:08.952Z,11.55
2023-04-18T11:44:39.647Z,13.88
2023-04-18T11:47:30.028Z,11.23
2023-04-18T11:50:06.665Z,14.02
2023-04-18T11:52:35.485Z,18.08
2023-04-18T11:55:21.902Z,16.42
2023-04-18T11:57:57.273Z,14.55
2023-04-18T12:00:39.316Z,12.40
2023-04-18T12:03:15.662Z,11.63
2023-04-18T12:05:43.162Z,13.57
2023-04-18T12:08:11.950Z,14.73
2023-04-18T12:10:51.287Z,11.98
2023-04-18T12:13:26.804Z,12.85
2023-04-18T12:15:54.598Z,13.07
2023-04-18T12:18:23.309Z,14.13
2023-04-18T12:20:54.186Z,11.40
2023-04-18T12:23:40.190Z,14.85
2023-04-18T12:26:12.398Z,11.55
2023-04-18T12:28:39.317Z,12.98
2023-04-18T12:31:09.145Z,14.82
2023-04-18T12:33:36.712Z,14.02
2023-04-18T12:36:05.515Z,12.75
2023-04-18T12:38:32.374Z,13.18
2023-04-18T12:40:59.225Z,14.15
2023-04-18T12:43:26.624Z,14.75
2023-04-18T12:45:53.786Z,13.68
2023-04-18T12:48:20.782Z,12.82
2023-04-18T12:50:47.585Z,13.95
2023-04-18T12:53:14.444Z,12.18
2023-04-18T12:55:41.338Z,14.50
2023-04-18T12:58:08.174Z,16.27
2023-04-18T13:00:35.244Z,15.00
2023-04-18T13:03:02.433Z,13.98
2023-04-18T13:05:33.088Z,16.80
2023-04-18T13:10:31.460Z,13.25
2023-04-18T13:12:58.374Z,19.23
2023-04-18T13:15:26.180Z,18.88
2023-04-18T13:17:56.014Z,17.20
2023-04-18T13:20:23.079Z,17.40
2023-04-18T13:22:49.842Z,15.80
2023-04-18T13:25:17.032Z,15.63
2023-04-18T13:27:45.198Z,19.52
2023-04-18T13:30:12.426Z,18.27
2023-04-18T13:32:40.448Z,14.95
2023-04-18T13:35:08.987Z,18.45
2023-04-18T13:37:36.754Z,18.65
2023-04-18T13:40:06.480Z,18.50
2023-04-18T13:42:38.616Z,16.90
2023-04-18T13:47:32.897Z,17.85
2023-04-18T13:49:59.862Z,18.38
2023-04-18T13:52:26.775Z,17.40
2023-04-18T13:54:53.761Z,21.10
2023-04-18T13:57:21.878Z,18.52
2023-04-18T13:59:50.129Z,17.00
2023-04-18T14:02:17.261Z,22.17
2023-04-18T14:04:44.373Z,15.90
2023-04-18T14:07:11.418Z,21.30
2023-04-18T14:09:38.242Z,20.05
2023-04-18T14:12:06.047Z,18.95
2023-04-18T14:14:32.909Z,20.83
2023-04-18T14:16:59.812Z,20.50
2023-04-18T14:19:27.392Z,19.40
2023-04-18T14:21:54.302Z,20.48
2023-04-18T14:24:21.263Z,21.77
2023-04-18T14:26:48.168Z,17.42
2023-04-18T14:29:15.260Z,18.77
2023-04-18T14:31:42.282Z,18.73
2023-04-18T14:34:09.802Z,21.05
2023-04-18T14:36:37.227Z,20.83
2023-04-18T14:39:04.812Z,20.55
2023-04-18T14:41:31.750Z,17.13
2023-04-18T14:43:59.167Z,15.65
2023-04-18T14:46:28.080Z,22.05
2023-04-18T14:48:55.096Z,22.20
2023-04-18T14:51:22.797Z,21.27
2023-04-18T14:53:49.841Z,20.38
2023-04-18T14:56:20.871Z,18.42
2023-04-18T14:58:47.963Z,20.90
2023-04-18T15:01:14.951Z,22.55
2023-04-18T15:03:41.902Z,20.35
2023-04-18T15:06:08.825Z,19.80
2023-04-18T15:08:36.014Z,24.00
2023-04-18T15:11:08.180Z,21.10
2023-04-18T15:13:35.199Z,22.98
2023-04-18T15:16:02.444Z,18.00
2023-04-18T15:18:29.318Z,23.73
2023-04-18T15:20:57.294Z,16.95
2023-04-18T15:23:24.161Z,18.20
2023-04-18T15:25:50.999Z,19.67
2023-04-18T15:28:18.735Z,17.90
2023-04-18T15:30:46.369Z,21.20
2023-04-18T15:33:13.798Z,18.00
2023-04-18T15:35:40.714Z,16.20
2023-04-18T15:38:07.659Z,22.05
2023-04-18T15:40:36.327Z,17.67
2023-04-18T15:43:04.096Z,18.83
2023-04-18T15:45:31.290Z,18.30
2023-04-18T15:47:58.675Z,21.95
2023-04-18T15:50:26.126Z,19.88
2023-04-18T15:52:56.451Z,21.40
2023-04-18T15:55:23.350Z,16.85
2023-04-18T15:57:50.182Z,18.20
2023-04-18T16:00:17.630Z,18.58
2023-04-18T16:02:46.011Z,20.02
2023-04-18T16:05:15.213Z,19.58
2023-04-18T16:07:42.845Z,18.92
2023-04-18T16:10:11.211Z,19.50
2023-04-18T16:12:39.702Z,19.00
2023-04-18T16:15:09.389Z,20.13
2023-04-18T16:17:39.408Z,23.15
2023-04-18T16:20:09.124Z,22.58
2023-04-18T16:22:37.471Z,24.38
2023-04-18T16:25:05.588Z,21.23
2023-04-18T16:27:33.277Z,21.17
2023-04-18T16:30:00.352Z,19.75
2023-04-18T16:32:27.405Z,19.52
2023-04-18T16:34:54.296Z,17.05
2023-04-18T16:37:21.147Z,20.20
2023-04-18T16:39:48.175Z,20.70
2023-04-18T16:42:15.744Z,18.38
2023-04-18T16:44:44.755Z,19.83
2023-04-18T16:47:11.746Z,19.63
2023-04-18T16:49:38.968Z,17.88
2023-04-18T16:52:05.864Z,17.02
2023-04-18T16:54:32.844Z,17.63
2023-04-18T16:56:59.705Z,18.92
2023-04-18T16:59:26.584Z,17.45
2023-04-18T17:01:53.465Z,17.65
2023-04-18T17:04:21.372Z,20.52
2023-04-18T17:06:49.780Z,17.00
2023-04-18T17:09:19.778Z,18.33
2023-04-18T17:11:46.846Z,19.38
2023-04-18T17:14:14.041Z,19.52
2023-04-18T17:16:42.478Z,19.35
2023-04-18T17:19:10.365Z,18.45
2023-04-18T17:21:38.414Z,15.18
2023-04-18T17:24:07.052Z,20.17
2023-04-18T17:26:35.447Z,22.13
2023-04-18T17:29:04.128Z,16.27
2023-04-18T17:31:31.801Z,19.23
2023-04-18T17:33:59.610Z,18.67
2023-04-18T17:36:27.256Z,19.77
2023-04-18T17:38:54.170Z,18.02
2023-04-18T17:41:22.085Z,16.67
2023-04-18T17:43:53.340Z,18.08
2023-04-18T17:46:20.379Z,16.75
2023-04-18T17:48:47.332Z,21.52
2023-04-18T17:51:16.261Z,21.60
2023-04-18T17:53:43.293Z,20.50
2023-04-18T17:56:10.813Z,20.08
2023-04-18T17:58:37.648Z,20.67
2023-04-18T18:01:17.108Z,17.17
2023-04-18T18:03:44.943Z,20.00
2023-04-18T18:06:13.245Z,16.02
2023-04-18T18:08:42.548Z,27.48
2023-04-18T18:11:10.721Z,16.90
2023-04-18T18:13:39.071Z,18.58
2023-04-18T18:16:07.620Z,21.55
2023-04-18T18:18:35.016Z,19.42
2023-04-18T18:21:01.870Z,20.52
2023-04-18T18:23:29.359Z,16.92
2023-04-18T18:25:56.255Z,20.02
2023-04-18T18:28:23.122Z,19.73
2023-04-18T18:30:49.905Z,18.92
2023-04-18T18:33:16.808Z,21.58
2023-04-18T18:35:43.657Z,18.25
2023-04-18T18:38:10.494Z,20.08
2023-04-18T18:40:37.497Z,18.08
2023-04-18T18:43:04.283Z,19.33
2023-04-18T18:45:31.325Z,20.02
2023-04-18T18:47:58.425Z,20.13
2023-04-18T18:50:25.489Z,18.00
2023-04-18T18:52:52.396Z,20.38
2023-04-18T18:55:19.222Z,17.33
2023-04-18T18:57:46.682Z,20.02
2023-04-18T19:00:14.326Z,18.55
2023-04-18T19:02:41.390Z,17.90
2023-04-18T19:05:08.893Z,19.25
2023-04-18T19:07:35.724Z,19.88
2023-04-18T19:10:03.484Z,19.02
2023-04-18T19:12:30.363Z,17.48
2023-04-18T19:14:57.343Z,16.73
2023-04-18T19:17:24.863Z,16.52
2023-04-18T19:19:53.305Z,17.40
2023-04-18T19:22:20.303Z,20.15
2023-04-18T19:24:48.018Z,19.42
2023-04-18T19:27:14.877Z,16.52
2023-04-18T19:29:41.779Z,15.82
2023-04-18T19:32:08.806Z,15.70
2023-04-18T19:34:36.251Z,15.45
2023-04-18T19:37:03.727Z,14.85
2023-04-18T19:39:30.708Z,16.45
2023-04-18T19:41:57.542Z,15.20
2023-04-18T19:44:24.382Z,16.75
2023-04-18T19:46:51.184Z,16.30
2023-04-18T19:49:18.028Z,16.08
2023-04-18T19:51:44.806Z,16.17
2023-04-18T19:54:11.651Z,15.95
2023-04-18T19:56:38.498Z,16.13
2023-04-18T19:59:06.203Z,14.20
2023-04-18T20:01:33.116Z,14.13
2023-04-18T20:04:00.604Z,16.90
2023-04-18T20:06:27.955Z,15.73
2023-04-18T20:08:54.939Z,12.50
2023-04-18T20:11:22.189Z,17.52
2023-04-18T20:13:49.387Z,15.57
2023-04-18T20:16:17.348Z,13.48
2023-04-18T20:18:47.285Z,14.55
2023-04-18T20:21:14.297Z,14.27
2023-04-18T20:23:45.443Z,15.77
2023-04-18T20:26:12.477Z,13.45
2023-04-18T20:28:39.556Z,15.15
2023-04-18T20:31:07.143Z,15.10
2023-04-18T20:33:34.385Z,16.80
2023-04-18T20:36:01.778Z,14.25
2023-04-18T20:38:29.683Z,17.23
2023-04-18T20:40:58.977Z,17.25
2023-04-18T20:43:26.797Z,16.27
2023-04-18T20:45:54.549Z,13.20
2023-04-18T20:48:21.467Z,17.40
2023-04-18T20:50:51.327Z,15.02
2023-04-18T20:53:26.075Z,16.38
2023-04-18T20:55:53.191Z,14.68
2023-04-18T20:58:20.040Z,14.93
2023-04-18T21:00:48.333Z,12.70
2023-04-18T21:03:16.786Z,15.23
2023-04-18T21:05:44.877Z,14.77
2023-04-18T21:08:14.719Z,16.95
2023-04-18T21:10:41.562Z,14.68
2023-04-18T21:13:09.272Z,15.35
2023-04-18T21:15:36.481Z,15.23
2023-04-18T21:18:03.499Z,17.90
2023-04-18T21:20:30.505Z,16.08
2023-04-18T21:22:57.345Z,15.00
2023-04-18T21:25:24.136Z,15.27
2023-04-18T21:27:51.330Z,14.10
2023-04-18T21:30:18.515Z,17.60
2023-04-18T21:32:47.223Z,17.75
2023-04-18T21:35:15.019Z,17.50
2023-04-18T21:37:42.889Z,17.25
2023-04-18T21:40:10.334Z,14.68
2023-04-18T21:42:37.579Z,17.65
2023-04-18T21:45:06.263Z,16.15
2023-04-18T21:47:33.219Z,17.38
2023-04-18T21:50:00.164Z,14.80
2023-04-18T21:52:26.988Z,15.00
2023-04-18T21:54:53.836Z,17.33
2023-04-18T21:57:21.020Z,16.20
2023-04-18T21:59:47.887Z,15.65
2023-04-18T22:02:14.802Z,15.90
2023-04-18T22:04:42.794Z,17.05
2023-04-18T22:07:11.480Z,14.55
2023-04-18T22:09:38.535Z,14.98
2023-04-18T22:12:05.574Z,15.05
2023-04-18T22:14:32.421Z,16.35
2023-04-18T22:17:01.772Z,14.73
2023-04-18T22:19:29.493Z,18.35
2023-04-18T22:21:56.547Z,16.10
2023-04-18T22:24:24.646Z,16.20
2023-04-18T22:26:52.393Z,18.33
2023-04-18T22:29:19.263Z,17.05
2023-04-18T22:31:46.205Z,17.40
2023-04-18T22:34:13.248Z,15.80
2023-04-18T22:36:40.632Z,14.90
2023-04-18T22:39:07.501Z,15.35
2023-04-18T22:41:34.316Z,19.08
2023-04-18T22:44:01.093Z,17.15
2023-04-18T22:46:28.069Z,17.40
2023-04-18T22:48:55.252Z,18.38
2023-04-18T22:51:23.436Z,16.27
2023-04-18T22:53:50.322Z,21.88
2023-04-18T22:56:17.161Z,18.17
2023-04-18T22:58:43.986Z,20.60
2023-04-18T23:01:10.854Z,17.10
2023-04-18T23:03:37.839Z,17.88
2023-04-18T23:06:08.088Z,21.17
2023-04-18T23:08:35.045Z,18.38
2023-04-18T23:11:01.874Z,16.35
2023-04-18T23:13:28.708Z,21.02
2023-04-18T23:15:55.563Z,18.98
2023-04-18T23:18:22.394Z,19.50
2023-04-18T23:20:49.219Z,19.38
2023-04-18T23:23:16.099Z,19.10
2023-04-18T23:25:44.116Z,18.15
2023-04-18T23:28:10.969Z,19.65
2023-04-18T23:30:37.864Z,18.08
2023-04-18T23:33:05.934Z,17.70
2023-04-18T23:35:32.807Z,17.80
2023-04-18T23:37:59.784Z,17.27
2023-04-18T23:40:26.620Z,19.50
2023-04-18T23:42:53.489Z,17.73
2023-04-18T23:45:20.339Z,17.08
2023-04-18T23:47:47.226Z,20.08
2023-04-18T23:50:14.066Z,19.05
2023-04-18T23:52:40.994Z,19.83
2023-04-18T23:55:08.607Z,18.48
2023-04-18T23:57:35.601Z,16.23
